Wilson Lahn — 8PUO — position and weather

sailwx.info

Track history (hours):
 
Tides and Currents Weather Stations Pressure Air Temp Water Temp Dewpoint Dewpoint Depression Visibility Wind Speed Wind Dir Waves Ship Positions

Wilson Lahn

Last reported at 2015-Apr-21 00:33 UTC. Time now 2015-Apr-21 17:50 UTC.
Position N 51°32' E 006°41'.

Length 83 m; draft 3.8 m.

Type: Cargo ship. MMSI: 314259000.

Date/timePositionNaut miles runAvg speedWind from/ knotsBaromVisibWave heightAir tempDewpointWater temp
2015-Apr-21 00:33N 51°32' E 006°41'4 4.0
2015-Apr-20 23:29N 51°34' E 006°36'49 4.8
2015-Apr-20 13:25N 51°48' E 005°21'20 6.9
2015-Apr-20 10:32N 51°49' E 004°48'7 7.2
2015-Apr-20 09:33N 51°46' E 004°38'1 0.0
2015-Apr-19 09:32N 51°47' E 004°38'7 6.9
2015-Apr-19 08:32N 51°50' E 004°27'7 6.6
2015-Apr-19 07:33N 51°54' E 004°19'7 6.9
2015-Apr-19 06:33N 51°57' E 004°10'8 8.0
2015-Apr-19 05:33N 52°00' E 003°58'12 8.2
2015-Apr-19 04:07N 52°10' E 003°47'57 8.2
2015-Apr-18 21:06N 53°05' E 004°16'7 8.7
2015-Apr-18 20:17N 53°09' E 004°25'36 8.6
2015-Apr-18 16:04N 53°44' E 004°42'286 8.2
2015-Apr-17 05:19N 58°29' E 005°28'17 9.8
2015-Apr-17 03:33N 58°46' E 005°23'1010.1
2015-Apr-17 02:33N 58°56' E 005°19'1010.0
2015-Apr-17 01:33N 59°06' E 005°19'1110.1
2015-Apr-17 00:30N 59°16' E 005°20'1010.1
2015-Apr-16 23:33N 59°25' E 005°14'5 0.2
2015-Apr-15 22:19N 59°30' E 005°13'7 8.8
2015-Apr-15 21:33N 59°23' E 005°17'9 9.5
2015-Apr-15 20:33N 59°14' E 005°21'9 8.8
2015-Apr-15 19:33N 59°06' E 005°21'9 9.0
2015-Apr-15 18:33N 58°57' E 005°16'9 9.1
2015-Apr-15 17:34N 58°49' E 005°08'332 9.8
2015-Apr-14 07:33N 53°53' E 000°35'1110.9
2015-Apr-14 06:33N 53°43' E 000°27'1111.3
2015-Apr-14 05:33N 53°34' E 000°16'1212.2
2015-Apr-14 04:34N 53°36' W 000°04'1212.4
2015-Apr-14 03:33N 53°43' W 000°22'1010.3
2015-Apr-14 02:33N 53°43' W 000°39'7 6.8
2015-Apr-14 01:33N 53°36' W 000°44'8 0.2
2015-Apr-12 10:31N 53°42' W 000°34'9 9.0
2015-Apr-12 09:33N 53°43' W 000°20'8 8.5
2015-Apr-12 08:34N 53°38' W 000°09'10 9.9
2015-Apr-12 07:33N 53°34' E 000°07'8 7.7
2015-Apr-12 06:33N 53°36' E 000°19'10 9.7
2015-Apr-12 05:33N 53°44' E 000°28'1 0.7
2015-Apr-12 04:33N 53°45' E 000°29'3 2.7
2015-Apr-12 03:33N 53°47' E 000°31'5 4.9
2015-Apr-12 02:33N 53°51' E 000°36'6 5.6
2015-Apr-12 01:33N 53°56' E 000°41'6 5.9
2015-Apr-12 00:32N 54°01' E 000°47'  
Track history (hours):
 
Tides and Currents Weather Stations Pressure Air Temp Water Temp Dewpoint Dewpoint Depression Visibility Wind Speed Wind Dir Waves Ship Positions

Wilson Lahn

Last reported at 2015-Apr-21 00:33 UTC. Time now 2015-Apr-21 17:50 UTC.
Position N 51°32' E 006°41'.

Length 83 m; draft 3.8 m.

Type: Cargo ship. MMSI: 314259000.

Date/timePositionNaut miles runAvg speedWind from/ knotsBaromVisibWave heightAir tempDewpointWater temp
2015-Apr-21 00:33N 51°32' E 006°41'4 4.0
2015-Apr-20 23:29N 51°34' E 006°36'49 4.8
2015-Apr-20 13:25N 51°48' E 005°21'20 6.9
2015-Apr-20 10:32N 51°49' E 004°48'7 7.2
2015-Apr-20 09:33N 51°46' E 004°38'1 0.0
2015-Apr-19 09:32N 51°47' E 004°38'7 6.9
2015-Apr-19 08:32N 51°50' E 004°27'7 6.6
2015-Apr-19 07:33N 51°54' E 004°19'7 6.9
2015-Apr-19 06:33N 51°57' E 004°10'8 8.0
2015-Apr-19 05:33N 52°00' E 003°58'12 8.2
2015-Apr-19 04:07N 52°10' E 003°47'57 8.2
2015-Apr-18 21:06N 53°05' E 004°16'7 8.7
2015-Apr-18 20:17N 53°09' E 004°25'36 8.6
2015-Apr-18 16:04N 53°44' E 004°42'286 8.2
2015-Apr-17 05:19N 58°29' E 005°28'17 9.8
2015-Apr-17 03:33N 58°46' E 005°23'1010.1
2015-Apr-17 02:33N 58°56' E 005°19'1010.0
2015-Apr-17 01:33N 59°06' E 005°19'1110.1
2015-Apr-17 00:30N 59°16' E 005°20'1010.1
2015-Apr-16 23:33N 59°25' E 005°14'5 0.2
2015-Apr-15 22:19N 59°30' E 005°13'7 8.8
2015-Apr-15 21:33N 59°23' E 005°17'9 9.5
2015-Apr-15 20:33N 59°14' E 005°21'9 8.8
2015-Apr-15 19:33N 59°06' E 005°21'9 9.0
2015-Apr-15 18:33N 58°57' E 005°16'9 9.1
2015-Apr-15 17:34N 58°49' E 005°08'332 9.8
2015-Apr-14 07:33N 53°53' E 000°35'1110.9
2015-Apr-14 06:33N 53°43' E 000°27'1111.3
2015-Apr-14 05:33N 53°34' E 000°16'1212.2
2015-Apr-14 04:34N 53°36' W 000°04'1212.4
2015-Apr-14 03:33N 53°43' W 000°22'1010.3
2015-Apr-14 02:33N 53°43' W 000°39'7 6.8
2015-Apr-14 01:33N 53°36' W 000°44'8 0.2
2015-Apr-12 10:31N 53°42' W 000°34'9 9.0
2015-Apr-12 09:33N 53°43' W 000°20'8 8.5
2015-Apr-12 08:34N 53°38' W 000°09'10 9.9
2015-Apr-12 07:33N 53°34' E 000°07'8 7.7
2015-Apr-12 06:33N 53°36' E 000°19'10 9.7
2015-Apr-12 05:33N 53°44' E 000°28'1 0.7
2015-Apr-12 04:33N 53°45' E 000°29'3 2.7
2015-Apr-12 03:33N 53°47' E 000°31'5 4.9
2015-Apr-12 02:33N 53°51' E 000°36'6 5.6
2015-Apr-12 01:33N 53°56' E 000°41'6 5.9
2015-Apr-12 00:32N 54°01' E 000°47'  

Dump ship's entire track history